sensor_id;sensor_type;location;lat;lon;timestamp;P1;durP1;ratioP1;P2;durP2;ratioP2
9526;SDS011;4802;51.494;6.770;2023-02-12T00:02:16;22.73;;;9.90;;
9526;SDS011;4802;51.494;6.770;2023-02-12T00:04:55;30.67;;;9.10;;
9526;SDS011;4802;51.494;6.770;2023-02-12T01:06:52;13.97;;;10.53;;
9526;SDS011;4802;51.494;6.770;2023-02-12T01:09:21;17.77;;;10.63;;
9526;SDS011;4802;51.494;6.770;2023-02-12T01:11:50;28.30;;;11.77;;
9526;SDS011;4802;51.494;6.770;2023-02-12T01:14:20;18.67;;;10.90;;
9526;SDS011;4802;51.494;6.770;2023-02-12T01:16:49;21.57;;;11.30;;
9526;SDS011;4802;51.494;6.770;2023-02-12T01:19:18;18.27;;;9.57;;
9526;SDS011;4802;51.494;6.770;2023-02-12T01:21:47;26.80;;;9.80;;
9526;SDS011;4802;51.494;6.770;2023-02-12T01:24:19;19.60;;;10.47;;
9526;SDS011;4802;51.494;6.770;2023-02-12T01:26:48;17.23;;;9.43;;
9526;SDS011;4802;51.494;6.770;2023-02-12T01:29:17;22.13;;;12.87;;
9526;SDS011;4802;51.494;6.770;2023-02-12T01:31:46;20.60;;;10.00;;
9526;SDS011;4802;51.494;6.770;2023-02-12T01:34:15;13.83;;;11.57;;
9526;SDS011;4802;51.494;6.770;2023-02-12T01:36:44;15.27;;;10.30;;
9526;SDS011;4802;51.494;6.770;2023-02-12T01:39:19;15.47;;;10.00;;
9526;SDS011;4802;51.494;6.770;2023-02-12T01:41:48;28.10;;;10.63;;
9526;SDS011;4802;51.494;6.770;2023-02-12T01:44:18;21.50;;;13.50;;
9526;SDS011;4802;51.494;6.770;2023-02-12T01:46:48;14.20;;;8.97;;
9526;SDS011;4802;51.494;6.770;2023-02-12T01:49:18;19.60;;;11.30;;
9526;SDS011;4802;51.494;6.770;2023-02-12T01:51:49;14.63;;;8.73;;
9526;SDS011;4802;51.494;6.770;2023-02-12T01:54:21;16.03;;;8.97;;
9526;SDS011;4802;51.494;6.770;2023-02-12T01:56:51;21.93;;;11.47;;
9526;SDS011;4802;51.494;6.770;2023-02-12T01:59:20;17.77;;;10.30;;
9526;SDS011;4802;51.494;6.770;2023-02-12T02:01:50;18.60;;;9.53;;
9526;SDS011;4802;51.494;6.770;2023-02-12T02:04:20;21.07;;;11.13;;
9526;SDS011;4802;51.494;6.770;2023-02-12T02:06:51;15.93;;;9.87;;
9526;SDS011;4802;51.494;6.770;2023-02-12T02:09:23;24.83;;;12.33;;
9526;SDS011;4802;51.494;6.770;2023-02-12T02:11:52;21.40;;;10.40;;
9526;SDS011;4802;51.494;6.770;2023-02-12T02:14:39;14.80;;;9.10;;
9526;SDS011;4802;51.494;6.770;2023-02-12T02:17:15;24.17;;;11.57;;
9526;SDS011;4802;51.494;6.770;2023-02-12T02:22:45;19.67;;;10.27;;
9526;SDS011;4802;51.494;6.770;2023-02-12T02:28:04;20.20;;;10.57;;
9526;SDS011;4802;51.494;6.770;2023-02-12T02:30:37;17.77;;;10.00;;
9526;SDS011;4802;51.494;6.770;2023-02-12T02:33:19;18.13;;;9.90;;
9526;SDS011;4802;51.494;6.770;2023-02-12T02:35:52;18.30;;;9.90;;
9526;SDS011;4802;51.494;6.770;2023-02-12T02:38:23;15.40;;;7.60;;
9526;SDS011;4802;51.494;6.770;2023-02-12T02:41:04;12.10;;;8.37;;
9526;SDS011;4802;51.494;6.770;2023-02-12T02:43:35;14.10;;;9.43;;
9526;SDS011;4802;51.494;6.770;2023-02-12T02:46:09;19.33;;;9.67;;
9526;SDS011;4802;51.494;6.770;2023-02-12T02:48:41;19.40;;;12.77;;
9526;SDS011;4802;51.494;6.770;2023-02-12T02:51:13;25.67;;;12.30;;
9526;SDS011;4802;51.494;6.770;2023-02-12T02:53:44;32.80;;;13.00;;
9526;SDS011;4802;51.494;6.770;2023-02-12T02:56:14;16.97;;;10.43;;
9526;SDS011;4802;51.494;6.770;2023-02-12T02:58:45;13.30;;;8.60;;
9526;SDS011;4802;51.494;6.770;2023-02-12T03:01:17;17.00;;;11.23;;
9526;SDS011;4802;51.494;6.770;2023-02-12T03:03:49;24.10;;;11.07;;
9526;SDS011;4802;51.494;6.770;2023-02-12T03:06:22;21.87;;;10.93;;
9526;SDS011;4802;51.494;6.770;2023-02-12T03:08:56;19.30;;;11.70;;
9526;SDS011;4802;51.494;6.770;2023-02-12T03:11:26;29.20;;;12.57;;
9526;SDS011;4802;51.494;6.770;2023-02-12T03:13:56;18.33;;;9.77;;
9526;SDS011;4802;51.494;6.770;2023-02-12T03:16:28;16.70;;;12.07;;
9526;SDS011;4802;51.494;6.770;2023-02-12T03:19:00;14.53;;;9.90;;
9526;SDS011;4802;51.494;6.770;2023-02-12T03:21:32;29.63;;;12.43;;
9526;SDS011;4802;51.494;6.770;2023-02-12T03:24:04;33.00;;;13.37;;
9526;SDS011;4802;51.494;6.770;2023-02-12T03:26:38;27.10;;;12.30;;
9526;SDS011;4802;51.494;6.770;2023-02-12T03:29:09;28.67;;;14.00;;
9526;SDS011;4802;51.494;6.770;2023-02-12T03:31:43;24.77;;;13.37;;
9526;SDS011;4802;51.494;6.770;2023-02-12T03:34:16;23.17;;;11.17;;
9526;SDS011;4802;51.494;6.770;2023-02-12T03:36:48;28.00;;;10.33;;
9526;SDS011;4802;51.494;6.770;2023-02-12T03:39:20;21.53;;;11.70;;
9526;SDS011;4802;51.494;6.770;2023-02-12T03:41:54;31.70;;;13.67;;
9526;SDS011;4802;51.494;6.770;2023-02-12T03:44:28;21.70;;;11.33;;
9526;SDS011;4802;51.494;6.770;2023-02-12T03:47:03;23.90;;;12.23;;
9526;SDS011;4802;51.494;6.770;2023-02-12T03:49:38;24.50;;;13.20;;
9526;SDS011;4802;51.494;6.770;2023-02-12T03:52:10;24.10;;;11.30;;
9526;SDS011;4802;51.494;6.770;2023-02-12T03:54:39;19.47;;;11.57;;
9526;SDS011;4802;51.494;6.770;2023-02-12T03:57:09;29.80;;;12.17;;
9526;SDS011;4802;51.494;6.770;2023-02-12T03:59:39;19.53;;;10.67;;
9526;SDS011;4802;51.494;6.770;2023-02-12T04:02:12;17.50;;;12.60;;
9526;SDS011;4802;51.494;6.770;2023-02-12T04:04:43;25.17;;;11.07;;
9526;SDS011;4802;51.494;6.770;2023-02-12T04:07:12;19.93;;;11.77;;
9526;SDS011;4802;51.494;6.770;2023-02-12T04:09:42;22.17;;;12.77;;
9526;SDS011;4802;51.494;6.770;2023-02-12T04:12:25;23.33;;;12.53;;
9526;SDS011;4802;51.494;6.770;2023-02-12T04:15:01;28.20;;;12.20;;
9526;SDS011;4802;51.494;6.770;2023-02-12T04:17:40;21.03;;;12.40;;
9526;SDS011;4802;51.494;6.770;2023-02-12T04:20:14;23.20;;;11.37;;
9526;SDS011;4802;51.494;6.770;2023-02-12T04:22:46;21.67;;;10.70;;
9526;SDS011;4802;51.494;6.770;2023-02-12T04:25:20;24.03;;;13.53;;
9526;SDS011;4802;51.494;6.770;2023-02-12T04:27:51;23.80;;;10.47;;
9526;SDS011;4802;51.494;6.770;2023-02-12T04:30:24;22.00;;;11.40;;
9526;SDS011;4802;51.494;6.770;2023-02-12T04:32:57;20.47;;;10.63;;
9526;SDS011;4802;51.494;6.770;2023-02-12T04:35:28;21.03;;;12.73;;
9526;SDS011;4802;51.494;6.770;2023-02-12T04:38:01;22.67;;;12.77;;
9526;SDS011;4802;51.494;6.770;2023-02-12T04:40:31;20.83;;;11.90;;
9526;SDS011;4802;51.494;6.770;2023-02-12T04:43:00;27.20;;;14.93;;
9526;SDS011;4802;51.494;6.770;2023-02-12T04:45:31;25.93;;;13.00;;
9526;SDS011;4802;51.494;6.770;2023-02-12T04:48:02;24.83;;;12.97;;
9526;SDS011;4802;51.494;6.770;2023-02-12T04:50:35;18.93;;;11.80;;
9526;SDS011;4802;51.494;6.770;2023-02-12T04:53:05;24.23;;;10.83;;
9526;SDS011;4802;51.494;6.770;2023-02-12T04:55:34;25.10;;;12.90;;
9526;SDS011;4802;51.494;6.770;2023-02-12T04:58:04;18.03;;;10.47;;
9526;SDS011;4802;51.494;6.770;2023-02-12T05:00:33;28.20;;;15.53;;
9526;SDS011;4802;51.494;6.770;2023-02-12T05:03:03;23.67;;;12.83;;
9526;SDS011;4802;51.494;6.770;2023-02-12T05:05:33;27.17;;;15.07;;
9526;SDS011;4802;51.494;6.770;2023-02-12T05:08:02;18.07;;;10.63;;
9526;SDS011;4802;51.494;6.770;2023-02-12T05:10:31;17.10;;;9.73;;
9526;SDS011;4802;51.494;6.770;2023-02-12T05:13:00;29.43;;;11.40;;
9526;SDS011;4802;51.494;6.770;2023-02-12T05:15:29;25.47;;;11.20;;
9526;SDS011;4802;51.494;6.770;2023-02-12T05:17:58;14.10;;;9.77;;
9526;SDS011;4802;51.494;6.770;2023-02-12T05:20:29;29.83;;;15.57;;
9526;SDS011;4802;51.494;6.770;2023-02-12T05:22:58;26.40;;;14.00;;
9526;SDS011;4802;51.494;6.770;2023-02-12T05:25:26;21.43;;;11.33;;
9526;SDS011;4802;51.494;6.770;2023-02-12T05:27:57;21.20;;;13.13;;
9526;SDS011;4802;51.494;6.770;2023-02-12T05:30:27;21.10;;;11.33;;
9526;SDS011;4802;51.494;6.770;2023-02-12T05:32:56;18.97;;;12.00;;
9526;SDS011;4802;51.494;6.770;2023-02-12T05:35:25;21.80;;;13.60;;
9526;SDS011;4802;51.494;6.770;2023-02-12T05:37:55;22.40;;;11.00;;
9526;SDS011;4802;51.494;6.770;2023-02-12T05:40:24;32.03;;;12.63;;
9526;SDS011;4802;51.494;6.770;2023-02-12T05:42:54;16.40;;;10.40;;
9526;SDS011;4802;51.494;6.770;2023-02-12T05:45:23;19.90;;;10.50;;
9526;SDS011;4802;51.494;6.770;2023-02-12T05:47:55;20.73;;;12.20;;
9526;SDS011;4802;51.494;6.770;2023-02-12T05:50:24;21.23;;;12.77;;
9526;SDS011;4802;51.494;6.770;2023-02-12T05:52:53;26.20;;;13.67;;
9526;SDS011;4802;51.494;6.770;2023-02-12T05:55:24;20.03;;;11.53;;
9526;SDS011;4802;51.494;6.770;2023-02-12T05:57:53;19.13;;;11.43;;
9526;SDS011;4802;51.494;6.770;2023-02-12T06:00:23;18.60;;;11.67;;
9526;SDS011;4802;51.494;6.770;2023-02-12T06:02:52;25.07;;;12.40;;
9526;SDS011;4802;51.494;6.770;2023-02-12T06:05:21;23.77;;;11.77;;
9526;SDS011;4802;51.494;6.770;2023-02-12T06:07:50;14.67;;;9.07;;
9526;SDS011;4802;51.494;6.770;2023-02-12T06:10:19;17.60;;;10.13;;
9526;SDS011;4802;51.494;6.770;2023-02-12T06:12:53;22.93;;;11.17;;
9526;SDS011;4802;51.494;6.770;2023-02-12T06:15:23;22.07;;;9.50;;
9526;SDS011;4802;51.494;6.770;2023-02-12T06:17:52;21.53;;;11.20;;
9526;SDS011;4802;51.494;6.770;2023-02-12T06:20:20;20.53;;;11.97;;
9526;SDS011;4802;51.494;6.770;2023-02-12T06:22:50;27.57;;;11.87;;
9526;SDS011;4802;51.494;6.770;2023-02-12T06:25:19;24.40;;;14.57;;
9526;SDS011;4802;51.494;6.770;2023-02-12T06:27:48;26.13;;;12.53;;
9526;SDS011;4802;51.494;6.770;2023-02-12T06:30:19;28.33;;;13.53;;
9526;SDS011;4802;51.494;6.770;2023-02-12T06:32:48;19.20;;;12.73;;
9526;SDS011;4802;51.494;6.770;2023-02-12T06:35:17;21.40;;;10.47;;
9526;SDS011;4802;51.494;6.770;2023-02-12T06:37:49;23.70;;;12.43;;
9526;SDS011;4802;51.494;6.770;2023-02-12T06:40:17;26.60;;;12.10;;
9526;SDS011;4802;51.494;6.770;2023-02-12T06:42:47;21.27;;;12.50;;
9526;SDS011;4802;51.494;6.770;2023-02-12T06:45:16;24.43;;;10.90;;
9526;SDS011;4802;51.494;6.770;2023-02-12T06:47:46;16.27;;;10.43;;
9526;SDS011;4802;51.494;6.770;2023-02-12T06:50:15;27.17;;;14.07;;
9526;SDS011;4802;51.494;6.770;2023-02-12T06:52:45;27.27;;;13.77;;
9526;SDS011;4802;51.494;6.770;2023-02-12T06:55:14;21.83;;;12.27;;
9526;SDS011;4802;51.494;6.770;2023-02-12T06:57:43;21.90;;;12.67;;
9526;SDS011;4802;51.494;6.770;2023-02-12T07:00:12;25.63;;;12.30;;
9526;SDS011;4802;51.494;6.770;2023-02-12T07:02:43;17.60;;;10.37;;
9526;SDS011;4802;51.494;6.770;2023-02-12T07:05:13;23.90;;;13.90;;
9526;SDS011;4802;51.494;6.770;2023-02-12T07:07:42;23.10;;;11.87;;
9526;SDS011;4802;51.494;6.770;2023-02-12T07:10:12;22.53;;;11.53;;
9526;SDS011;4802;51.494;6.770;2023-02-12T07:12:41;30.43;;;12.13;;
9526;SDS011;4802;51.494;6.770;2023-02-12T07:15:10;25.23;;;13.10;;
9526;SDS011;4802;51.494;6.770;2023-02-12T07:17:40;20.87;;;11.20;;
9526;SDS011;4802;51.494;6.770;2023-02-12T07:20:09;24.17;;;9.97;;
9526;SDS011;4802;51.494;6.770;2023-02-12T07:22:40;12.90;;;8.87;;
9526;SDS011;4802;51.494;6.770;2023-02-12T07:25:09;31.07;;;11.63;;
9526;SDS011;4802;51.494;6.770;2023-02-12T07:27:40;13.97;;;10.40;;
9526;SDS011;4802;51.494;6.770;2023-02-12T07:30:09;32.70;;;12.93;;
9526;SDS011;4802;51.494;6.770;2023-02-12T07:32:38;15.10;;;10.30;;
9526;SDS011;4802;51.494;6.770;2023-02-12T07:35:07;23.37;;;13.73;;
9526;SDS011;4802;51.494;6.770;2023-02-12T07:37:37;22.27;;;11.90;;
9526;SDS011;4802;51.494;6.770;2023-02-12T07:40:08;21.73;;;11.77;;
9526;SDS011;4802;51.494;6.770;2023-02-12T07:42:37;27.83;;;13.73;;
9526;SDS011;4802;51.494;6.770;2023-02-12T07:45:06;19.27;;;10.57;;
9526;SDS011;4802;51.494;6.770;2023-02-12T07:47:36;21.03;;;12.00;;
9526;SDS011;4802;51.494;6.770;2023-02-12T07:50:06;20.23;;;9.77;;
9526;SDS011;4802;51.494;6.770;2023-02-12T07:52:35;19.27;;;9.53;;
9526;SDS011;4802;51.494;6.770;2023-02-12T07:55:04;25.03;;;12.17;;
9526;SDS011;4802;51.494;6.770;2023-02-12T07:57:35;21.07;;;9.57;;
9526;SDS011;4802;51.494;6.770;2023-02-12T08:00:05;42.53;;;14.93;;
9526;SDS011;4802;51.494;6.770;2023-02-12T08:02:34;23.53;;;10.30;;
9526;SDS011;4802;51.494;6.770;2023-02-12T08:05:04;25.10;;;13.57;;
9526;SDS011;4802;51.494;6.770;2023-02-12T08:07:34;16.33;;;10.40;;
9526;SDS011;4802;51.494;6.770;2023-02-12T08:10:03;23.60;;;10.93;;
9526;SDS011;4802;51.494;6.770;2023-02-12T08:12:33;20.40;;;9.17;;
9526;SDS011;4802;51.494;6.770;2023-02-12T08:15:03;22.00;;;11.73;;
9526;SDS011;4802;51.494;6.770;2023-02-12T08:17:33;17.87;;;11.73;;
9526;SDS011;4802;51.494;6.770;2023-02-12T08:20:02;21.43;;;12.33;;
9526;SDS011;4802;51.494;6.770;2023-02-12T08:22:31;22.37;;;12.60;;
9526;SDS011;4802;51.494;6.770;2023-02-12T08:25:00;23.90;;;11.50;;
9526;SDS011;4802;51.494;6.770;2023-02-12T08:27:29;22.80;;;10.90;;
9526;SDS011;4802;51.494;6.770;2023-02-12T08:29:59;27.03;;;13.30;;
9526;SDS011;4802;51.494;6.770;2023-02-12T08:32:30;23.70;;;10.77;;
9526;SDS011;4802;51.494;6.770;2023-02-12T08:35:02;16.37;;;9.43;;
9526;SDS011;4802;51.494;6.770;2023-02-12T08:37:31;14.07;;;9.80;;
9526;SDS011;4802;51.494;6.770;2023-02-12T08:40:01;21.33;;;11.37;;
9526;SDS011;4802;51.494;6.770;2023-02-12T08:42:33;27.80;;;11.20;;
9526;SDS011;4802;51.494;6.770;2023-02-12T08:45:02;25.07;;;12.60;;
9526;SDS011;4802;51.494;6.770;2023-02-12T08:47:32;24.40;;;11.70;;
9526;SDS011;4802;51.494;6.770;2023-02-12T08:50:01;26.10;;;13.13;;
9526;SDS011;4802;51.494;6.770;2023-02-12T08:52:31;17.17;;;10.60;;
9526;SDS011;4802;51.494;6.770;2023-02-12T08:55:02;28.57;;;14.13;;
9526;SDS011;4802;51.494;6.770;2023-02-12T08:57:31;24.70;;;14.00;;
9526;SDS011;4802;51.494;6.770;2023-02-12T09:00:00;26.80;;;13.27;;
9526;SDS011;4802;51.494;6.770;2023-02-12T09:02:30;17.93;;;11.77;;
9526;SDS011;4802;51.494;6.770;2023-02-12T09:05:01;24.93;;;14.60;;
9526;SDS011;4802;51.494;6.770;2023-02-12T09:07:30;27.53;;;12.07;;
9526;SDS011;4802;51.494;6.770;2023-02-12T09:09:59;28.40;;;12.13;;
9526;SDS011;4802;51.494;6.770;2023-02-12T09:12:28;28.90;;;12.77;;
9526;SDS011;4802;51.494;6.770;2023-02-12T09:14:57;25.47;;;13.47;;
9526;SDS011;4802;51.494;6.770;2023-02-12T09:17:27;26.43;;;12.60;;
9526;SDS011;4802;51.494;6.770;2023-02-12T09:19:56;21.57;;;12.00;;
9526;SDS011;4802;51.494;6.770;2023-02-12T09:22:29;27.30;;;12.27;;
9526;SDS011;4802;51.494;6.770;2023-02-12T09:24:57;15.63;;;10.20;;
9526;SDS011;4802;51.494;6.770;2023-02-12T09:27:26;24.97;;;13.07;;
9526;SDS011;4802;51.494;6.770;2023-02-12T09:29:56;27.43;;;11.43;;
9526;SDS011;4802;51.494;6.770;2023-02-12T09:32:26;17.67;;;10.60;;
9526;SDS011;4802;51.494;6.770;2023-02-12T09:34:55;33.57;;;15.83;;
9526;SDS011;4802;51.494;6.770;2023-02-12T09:37:24;21.13;;;11.70;;
9526;SDS011;4802;51.494;6.770;2023-02-12T09:39:55;21.47;;;12.50;;
9526;SDS011;4802;51.494;6.770;2023-02-12T09:42:34;23.97;;;12.00;;
9526;SDS011;4802;51.494;6.770;2023-02-12T09:45:08;25.37;;;11.47;;
9526;SDS011;4802;51.494;6.770;2023-02-12T09:47:41;27.27;;;14.87;;
9526;SDS011;4802;51.494;6.770;2023-02-12T09:50:16;18.97;;;10.67;;
9526;SDS011;4802;51.494;6.770;2023-02-12T09:52:47;37.43;;;13.53;;
9526;SDS011;4802;51.494;6.770;2023-02-12T09:55:21;17.17;;;9.83;;
9526;SDS011;4802;51.494;6.770;2023-02-12T09:57:50;22.50;;;11.60;;
9526;SDS011;4802;51.494;6.770;2023-02-12T10:00:23;17.70;;;10.27;;
9526;SDS011;4802;51.494;6.770;2023-02-12T10:02:54;22.90;;;12.40;;
9526;SDS011;4802;51.494;6.770;2023-02-12T10:05:24;20.70;;;10.80;;
9526;SDS011;4802;51.494;6.770;2023-02-12T10:11:00;17.83;;;10.13;;
9526;SDS011;4802;51.494;6.770;2023-02-12T10:13:35;26.23;;;13.53;;
9526;SDS011;4802;51.494;6.770;2023-02-12T10:16:09;21.43;;;10.20;;
9526;SDS011;4802;51.494;6.770;2023-02-12T10:18:52;17.93;;;9.70;;
9526;SDS011;4802;51.494;6.770;2023-02-12T10:21:29;13.93;;;8.27;;
9526;SDS011;4802;51.494;6.770;2023-02-12T10:24:10;14.00;;;9.67;;
9526;SDS011;4802;51.494;6.770;2023-02-12T10:26:42;17.70;;;8.33;;
9526;SDS011;4802;51.494;6.770;2023-02-12T10:29:16;20.27;;;10.10;;
9526;SDS011;4802;51.494;6.770;2023-02-12T10:31:47;15.67;;;7.20;;
9526;SDS011;4802;51.494;6.770;2023-02-12T10:34:19;18.97;;;10.70;;
9526;SDS011;4802;51.494;6.770;2023-02-12T10:36:52;20.67;;;11.50;;
9526;SDS011;4802;51.494;6.770;2023-02-12T10:39:26;19.93;;;8.60;;
9526;SDS011;4802;51.494;6.770;2023-02-12T10:42:00;18.03;;;10.40;;
9526;SDS011;4802;51.494;6.770;2023-02-12T10:44:30;18.70;;;9.43;;
9526;SDS011;4802;51.494;6.770;2023-02-12T10:47:00;19.00;;;9.40;;
9526;SDS011;4802;51.494;6.770;2023-02-12T10:49:30;22.40;;;9.73;;
9526;SDS011;4802;51.494;6.770;2023-02-12T10:52:07;16.97;;;9.67;;
9526;SDS011;4802;51.494;6.770;2023-02-12T10:54:39;20.90;;;10.83;;
9526;SDS011;4802;51.494;6.770;2023-02-12T10:57:18;13.33;;;8.73;;
9526;SDS011;4802;51.494;6.770;2023-02-12T10:59:56;21.60;;;10.67;;
9526;SDS011;4802;51.494;6.770;2023-02-12T11:02:26;19.27;;;9.67;;
9526;SDS011;4802;51.494;6.770;2023-02-12T11:04:56;18.80;;;7.70;;
9526;SDS011;4802;51.494;6.770;2023-02-12T11:07:27;21.27;;;11.20;;
9526;SDS011;4802;51.494;6.770;2023-02-12T11:09:56;15.10;;;9.87;;
9526;SDS011;4802;51.494;6.770;2023-02-12T11:12:30;15.63;;;9.70;;
9526;SDS011;4802;51.494;6.770;2023-02-12T11:15:03;15.20;;;10.50;;
9526;SDS011;4802;51.494;6.770;2023-02-12T11:17:36;14.13;;;8.93;;
9526;SDS011;4802;51.494;6.770;2023-02-12T11:23:04;12.47;;;7.33;;
9526;SDS011;4802;51.494;6.770;2023-02-12T11:25:36;15.07;;;8.47;;
9526;SDS011;4802;51.494;6.770;2023-02-12T11:28:15;17.90;;;10.57;;
9526;SDS011;4802;51.494;6.770;2023-02-12T11:30:48;19.77;;;10.30;;
9526;SDS011;4802;51.494;6.770;2023-02-12T11:33:21;12.60;;;9.53;;
9526;SDS011;4802;51.494;6.770;2023-02-12T11:35:52;17.53;;;9.43;;
9526;SDS011;4802;51.494;6.770;2023-02-12T11:38:26;17.17;;;10.10;;
9526;SDS011;4802;51.494;6.770;2023-02-12T11:41:01;12.57;;;7.83;;
9526;SDS011;4802;51.494;6.770;2023-02-12T11:43:36;9.80;;;6.97;;
9526;SDS011;4802;51.494;6.770;2023-02-12T11:46:07;8.90;;;6.40;;
9526;SDS011;4802;51.494;6.770;2023-02-12T11:48:40;11.93;;;7.60;;
9526;SDS011;4802;51.494;6.770;2023-02-12T11:51:23;12.10;;;6.37;;
9526;SDS011;4802;51.494;6.770;2023-02-12T11:53:56;10.30;;;7.87;;
9526;SDS011;4802;51.494;6.770;2023-02-12T11:56:39;11.20;;;8.00;;
9526;SDS011;4802;51.494;6.770;2023-02-12T12:02:24;8.77;;;6.60;;
9526;SDS011;4802;51.494;6.770;2023-02-12T12:05:08;13.10;;;7.87;;
9526;SDS011;4802;51.494;6.770;2023-02-12T12:07:42;10.93;;;7.20;;
9526;SDS011;4802;51.494;6.770;2023-02-12T12:10:22;9.93;;;6.97;;
9526;SDS011;4802;51.494;6.770;2023-02-12T12:12:56;13.60;;;7.17;;
9526;SDS011;4802;51.494;6.770;2023-02-12T12:15:29;17.10;;;7.30;;
9526;SDS011;4802;51.494;6.770;2023-02-12T12:18:23;13.67;;;8.80;;
9526;SDS011;4802;51.494;6.770;2023-02-12T12:21:13;14.07;;;6.93;;
9526;SDS011;4802;51.494;6.770;2023-02-12T12:23:45;11.53;;;8.30;;
9526;SDS011;4802;51.494;6.770;2023-02-12T12:26:17;12.03;;;7.57;;
9526;SDS011;4802;51.494;6.770;2023-02-12T12:29:02;12.47;;;8.40;;
9526;SDS011;4802;51.494;6.770;2023-02-12T12:31:37;10.60;;;6.17;;
9526;SDS011;4802;51.494;6.770;2023-02-12T12:34:10;10.07;;;7.03;;
9526;SDS011;4802;51.494;6.770;2023-02-12T12:39:40;16.30;;;7.13;;
9526;SDS011;4802;51.494;6.770;2023-02-12T12:42:37;15.57;;;8.20;;
9526;SDS011;4802;51.494;6.770;2023-02-12T12:45:21;12.73;;;7.57;;
9526;SDS011;4802;51.494;6.770;2023-02-12T12:47:56;13.87;;;6.70;;
9526;SDS011;4802;51.494;6.770;2023-02-12T12:50:43;12.13;;;8.07;;
9526;SDS011;4802;51.494;6.770;2023-02-12T12:53:25;16.17;;;7.37;;
9526;SDS011;4802;51.494;6.770;2023-02-12T12:56:19;19.43;;;7.40;;
9526;SDS011;4802;51.494;6.770;2023-02-12T13:02:02;17.63;;;10.10;;
9526;SDS011;4802;51.494;6.770;2023-02-12T13:04:50;10.87;;;6.97;;
9526;SDS011;4802;51.494;6.770;2023-02-12T13:07:35;15.47;;;8.07;;
9526;SDS011;4802;51.494;6.770;2023-02-12T13:10:10;13.73;;;8.07;;
9526;SDS011;4802;51.494;6.770;2023-02-12T13:12:52;15.53;;;9.27;;
9526;SDS011;4802;51.494;6.770;2023-02-12T13:15:26;11.30;;;7.90;;
9526;SDS011;4802;51.494;6.770;2023-02-12T13:18:03;14.17;;;7.77;;
9526;SDS011;4802;51.494;6.770;2023-02-12T13:20:39;19.50;;;8.40;;
9526;SDS011;4802;51.494;6.770;2023-02-12T13:23:13;21.80;;;7.97;;
9526;SDS011;4802;51.494;6.770;2023-02-12T13:25:47;14.70;;;5.97;;
9526;SDS011;4802;51.494;6.770;2023-02-12T13:28:21;14.90;;;6.37;;
9526;SDS011;4802;51.494;6.770;2023-02-12T13:30:51;15.33;;;7.20;;
9526;SDS011;4802;51.494;6.770;2023-02-12T13:33:23;11.60;;;6.57;;
9526;SDS011;4802;51.494;6.770;2023-02-12T13:36:00;16.50;;;9.40;;
9526;SDS011;4802;51.494;6.770;2023-02-12T13:38:39;13.40;;;8.27;;
9526;SDS011;4802;51.494;6.770;2023-02-12T13:41:13;23.97;;;9.13;;
9526;SDS011;4802;51.494;6.770;2023-02-12T13:43:48;12.50;;;6.67;;
9526;SDS011;4802;51.494;6.770;2023-02-12T13:46:22;19.40;;;7.07;;
9526;SDS011;4802;51.494;6.770;2023-02-12T13:48:55;9.23;;;7.67;;
9526;SDS011;4802;51.494;6.770;2023-02-12T13:51:28;17.57;;;8.83;;
9526;SDS011;4802;51.494;6.770;2023-02-12T13:54:16;12.60;;;7.40;;
9526;SDS011;4802;51.494;6.770;2023-02-12T13:56:52;13.80;;;7.73;;
9526;SDS011;4802;51.494;6.770;2023-02-12T13:59:39;13.70;;;7.93;;
9526;SDS011;4802;51.494;6.770;2023-02-12T14:05:28;24.40;;;9.33;;
9526;SDS011;4802;51.494;6.770;2023-02-12T14:08:01;22.77;;;8.87;;
9526;SDS011;4802;51.494;6.770;2023-02-12T14:11:01;14.03;;;9.37;;
9526;SDS011;4802;51.494;6.770;2023-02-12T14:13:32;12.40;;;7.23;;
9526;SDS011;4802;51.494;6.770;2023-02-12T14:18:51;12.17;;;7.33;;
9526;SDS011;4802;51.494;6.770;2023-02-12T14:27:00;14.43;;;9.03;;
9526;SDS011;4802;51.494;6.770;2023-02-12T14:29:30;22.10;;;9.80;;
9526;SDS011;4802;51.494;6.770;2023-02-12T14:32:06;24.43;;;12.80;;
9526;SDS011;4802;51.494;6.770;2023-02-12T14:41:34;18.83;;;9.17;;
9526;SDS011;4802;51.494;6.770;2023-02-12T14:49:55;13.97;;;8.50;;
9526;SDS011;4802;51.494;6.770;2023-02-12T14:52:25;23.63;;;8.60;;
9526;SDS011;4802;51.494;6.770;2023-02-12T14:54:55;18.80;;;9.80;;
9526;SDS011;4802;51.494;6.770;2023-02-12T14:57:26;12.57;;;7.10;;
9526;SDS011;4802;51.494;6.770;2023-02-12T14:59:56;16.20;;;9.27;;
9526;SDS011;4802;51.494;6.770;2023-02-12T15:02:28;21.23;;;10.60;;
9526;SDS011;4802;51.494;6.770;2023-02-12T15:05:03;22.53;;;10.63;;
9526;SDS011;4802;51.494;6.770;2023-02-12T15:07:36;21.43;;;7.17;;
9526;SDS011;4802;51.494;6.770;2023-02-12T15:10:12;16.97;;;9.43;;
9526;SDS011;4802;51.494;6.770;2023-02-12T15:12:44;20.07;;;8.70;;
9526;SDS011;4802;51.494;6.770;2023-02-12T15:15:24;23.87;;;10.40;;
9526;SDS011;4802;51.494;6.770;2023-02-12T15:17:58;26.37;;;10.40;;
9526;SDS011;4802;51.494;6.770;2023-02-12T15:20:33;10.93;;;8.40;;
9526;SDS011;4802;51.494;6.770;2023-02-12T15:25:47;14.77;;;9.17;;
9526;SDS011;4802;51.494;6.770;2023-02-12T15:28:19;14.60;;;8.53;;
9526;SDS011;4802;51.494;6.770;2023-02-12T15:30:49;15.80;;;8.37;;
9526;SDS011;4802;51.494;6.770;2023-02-12T15:36:09;19.17;;;8.97;;
9526;SDS011;4802;51.494;6.770;2023-02-12T15:38:39;24.17;;;10.70;;
9526;SDS011;4802;51.494;6.770;2023-02-12T15:41:21;18.90;;;10.30;;
9526;SDS011;4802;51.494;6.770;2023-02-12T15:43:53;21.00;;;10.63;;
9526;SDS011;4802;51.494;6.770;2023-02-12T15:46:26;13.30;;;10.20;;
9526;SDS011;4802;51.494;6.770;2023-02-12T15:48:55;15.93;;;7.37;;
9526;SDS011;4802;51.494;6.770;2023-02-12T15:51:28;13.73;;;6.80;;
9526;SDS011;4802;51.494;6.770;2023-02-12T15:54:00;24.00;;;9.33;;
9526;SDS011;4802;51.494;6.770;2023-02-12T15:56:32;13.37;;;9.70;;
9526;SDS011;4802;51.494;6.770;2023-02-12T15:59:02;14.70;;;9.23;;
9526;SDS011;4802;51.494;6.770;2023-02-12T16:01:32;12.67;;;7.30;;
9526;SDS011;4802;51.494;6.770;2023-02-12T16:04:02;16.10;;;7.87;;
9526;SDS011;4802;51.494;6.770;2023-02-12T16:06:34;26.07;;;11.60;;
9526;SDS011;4802;51.494;6.770;2023-02-12T16:09:06;12.80;;;7.13;;
9526;SDS011;4802;51.494;6.770;2023-02-12T16:11:36;16.70;;;8.40;;
9526;SDS011;4802;51.494;6.770;2023-02-12T16:14:06;9.00;;;6.63;;
9526;SDS011;4802;51.494;6.770;2023-02-12T16:16:38;30.27;;;9.57;;
9526;SDS011;4802;51.494;6.770;2023-02-12T16:19:19;11.37;;;7.63;;
9526;SDS011;4802;51.494;6.770;2023-02-12T16:21:52;20.30;;;8.30;;
9526;SDS011;4802;51.494;6.770;2023-02-12T16:24:24;14.13;;;8.70;;
9526;SDS011;4802;51.494;6.770;2023-02-12T16:26:55;24.57;;;8.37;;
9526;SDS011;4802;51.494;6.770;2023-02-12T16:29:27;15.37;;;9.40;;
9526;SDS011;4802;51.494;6.770;2023-02-12T16:31:59;13.27;;;6.30;;
9526;SDS011;4802;51.494;6.770;2023-02-12T16:34:33;15.80;;;7.70;;
9526;SDS011;4802;51.494;6.770;2023-02-12T16:37:07;19.33;;;7.50;;
9526;SDS011;4802;51.494;6.770;2023-02-12T16:40:11;10.77;;;6.17;;
9526;SDS011;4802;51.494;6.770;2023-02-12T16:45:41;16.43;;;8.63;;
9526;SDS011;4802;51.494;6.770;2023-02-12T16:48:16;16.23;;;8.80;;
9526;SDS011;4802;51.494;6.770;2023-02-12T16:50:52;21.33;;;10.93;;
9526;SDS011;4802;51.494;6.770;2023-02-12T16:56:17;14.83;;;7.60;;
9526;SDS011;4802;51.494;6.770;2023-02-12T16:58:47;14.80;;;7.73;;
9526;SDS011;4802;51.494;6.770;2023-02-12T17:01:19;11.97;;;7.93;;
9526;SDS011;4802;51.494;6.770;2023-02-12T17:03:48;12.63;;;8.53;;
9526;SDS011;4802;51.494;6.770;2023-02-12T17:06:19;20.30;;;11.07;;
9526;SDS011;4802;51.494;6.770;2023-02-12T17:08:48;17.23;;;10.17;;
9526;SDS011;4802;51.494;6.770;2023-02-12T17:11:21;16.67;;;8.80;;
9526;SDS011;4802;51.494;6.770;2023-02-12T17:13:52;25.50;;;9.23;;
9526;SDS011;4802;51.494;6.770;2023-02-12T17:16:24;17.60;;;9.00;;
9526;SDS011;4802;51.494;6.770;2023-02-12T17:18:57;17.63;;;9.83;;
9526;SDS011;4802;51.494;6.770;2023-02-12T17:21:27;12.00;;;9.33;;